Time;durP1;ratioP1;P1;durP2;ratioP2;P2;SDS_P1;SDS_P2;PMS_P1;PMS_P2;Temp;Humidity;BMP_temperature;BMP_pressure;BME280_temperature;BME280_humidity;BME280_pressure;Samples;Min_cycle;Max_cycle;Signal;HPM_P1;HPM_P2
2022/02/22 00:01:37;;;;;;;1.57;1.33;;;7.20;61.00;;;;;;5102898;28;20218;-68
2022/02/22 00:04:04;;;;;;;2.50;1.50;;;7.20;61.20;;;;;;5090824;28;20735;-68
2022/02/22 00:06:31;;;;;;;5.87;2.03;;;7.20;62.60;;;;;;5087633;28;20210;-68
2022/02/22 00:08:58;;;;;;;3.00;1.60;;;7.20;63.60;;;;;;5084867;28;20423;-68
2022/02/22 00:11:26;;;;;;;2.70;1.40;;;7.10;64.00;;;;;;5086744;28;20210;-67
2022/02/22 00:13:53;;;;;;;2.33;1.80;;;7.00;63.90;;;;;;5075513;28;20199;-66
2022/02/22 00:16:20;;;;;;;2.20;1.20;;;7.10;64.00;;;;;;5064525;28;20203;-66
2022/02/22 00:18:47;;;;;;;3.17;1.47;;;7.00;63.30;;;;;;5087196;28;20553;-67
2022/02/22 00:21:14;;;;;;;3.00;1.37;;;7.00;63.20;;;;;;5082133;28;20212;-68
2022/02/22 00:23:45;;;;;;;2.50;1.50;;;7.00;63.10;;;;;;5077591;28;20298;-67
2022/02/22 00:26:12;;;;;;;1.90;1.60;;;7.10;63.10;;;;;;5081566;28;20222;-66
2022/02/22 00:28:39;;;;;;;3.13;1.30;;;7.00;63.60;;;;;;5080606;28;20224;-67
2022/02/22 00:31:06;;;;;;;1.93;1.20;;;7.00;64.90;;;;;;5099434;28;20218;-67
2022/02/22 00:33:34;;;;;;;2.73;1.83;;;6.90;65.20;;;;;;5079542;28;20219;-67
2022/02/22 00:36:01;;;;;;;2.00;1.40;;;6.90;65.30;;;;;;5078137;28;20687;-67
2022/02/22 00:38:29;;;;;;;2.87;1.40;;;6.80;64.80;;;;;;5073072;28;20268;-67
2022/02/22 00:40:56;;;;;;;2.77;1.87;;;6.80;65.10;;;;;;5100695;28;20616;-67
2022/02/22 00:43:24;;;;;;;2.20;1.50;;;6.80;65.50;;;;;;5065520;28;20212;-67
2022/02/22 00:45:51;;;;;;;3.00;1.50;;;6.70;65.70;;;;;;5079644;28;20210;-67
2022/02/22 00:48:19;;;;;;;2.63;1.47;;;6.60;65.10;;;;;;5073218;28;20530;-68
2022/02/22 00:50:46;;;;;;;1.83;1.40;;;6.50;65.40;;;;;;5093005;28;20204;-68
2022/02/22 00:53:13;;;;;;;2.97;1.40;;;6.50;65.80;;;;;;5082049;28;20210;-67
2022/02/22 00:55:41;;;;;;;1.40;1.10;;;6.40;66.20;;;;;;5086457;28;20242;-66
2022/02/22 00:58:08;;;;;;;4.77;1.07;;;6.40;66.30;;;;;;5056013;28;20220;-66
2022/02/22 01:00:35;;;;;;;2.20;1.70;;;6.40;66.50;;;;;;5079478;28;20196;-66
2022/02/22 01:03:02;;;;;;;1.80;1.27;;;6.30;66.40;;;;;;5080291;28;20200;-67
2022/02/22 01:05:29;;;;;;;1.50;1.00;;;6.30;66.30;;;;;;5098477;28;20251;-66
2022/02/22 01:07:56;;;;;;;1.30;1.10;;;6.30;65.90;;;;;;5081451;28;20220;-67
2022/02/22 01:10:24;;;;;;;1.77;1.30;;;6.30;65.60;;;;;;5073555;28;20214;-67
2022/02/22 01:12:51;;;;;;;1.57;1.10;;;6.40;65.50;;;;;;5077078;28;20287;-67
2022/02/22 01:15:18;;;;;;;1.00;0.90;;;6.30;65.30;;;;;;5080748;28;20200;-66
2022/02/22 01:17:45;;;;;;;2.07;1.13;;;6.40;65.30;;;;;;5086702;28;20200;-66
2022/02/22 01:20:13;;;;;;;1.43;0.90;;;6.40;65.10;;;;;;5090806;28;20222;-67
2022/02/22 01:22:40;;;;;;;2.60;1.00;;;6.30;64.80;;;;;;5089947;28;20553;-68
2022/02/22 01:25:09;;;;;;;1.83;1.10;;;6.30;64.60;;;;;;5085866;28;20211;-68
2022/02/22 01:27:37;;;;;;;2.27;1.23;;;6.30;65.00;;;;;;5080251;28;20260;-66
2022/02/22 01:30:07;;;;;;;2.27;1.10;;;6.20;64.60;;;;;;5076544;28;20204;-66
2022/02/22 01:32:34;;;;;;;1.40;1.07;;;6.10;64.80;;;;;;5088387;28;20515;-66
2022/02/22 01:35:06;;;;;;;1.07;1.00;;;6.10;65.20;;;;;;5078536;28;20205;-66
2022/02/22 01:37:33;;;;;;;3.10;1.20;;;6.10;65.20;;;;;;5064991;28;20197;-68
2022/02/22 01:40:00;;;;;;;1.37;1.23;;;6.00;65.30;;;;;;5078593;28;20204;-68
2022/02/22 01:42:27;;;;;;;3.33;1.20;;;6.00;66.00;;;;;;5085426;28;20561;-68
2022/02/22 01:44:54;;;;;;;1.50;1.17;;;6.00;66.20;;;;;;5080138;28;20201;-66
2022/02/22 01:47:21;;;;;;;1.10;1.00;;;6.00;66.20;;;;;;5079023;28;20203;-66
2022/02/22 01:49:48;;;;;;;1.60;1.43;;;6.00;65.30;;;;;;5084071;28;20566;-66
2022/02/22 01:52:16;;;;;;;1.17;1.03;;;5.90;64.60;;;;;;5070796;28;20196;-66
2022/02/22 01:54:45;;;;;;;1.87;1.30;;;5.70;65.20;;;;;;5086361;28;20205;-66
2022/02/22 01:57:13;;;;;;;1.30;0.93;;;5.60;66.30;;;;;;5060027;28;20226;-67
2022/02/22 01:59:44;;;;;;;1.57;1.27;;;5.50;67.30;;;;;;5063443;28;20226;-68
2022/02/22 02:02:12;;;;;;;1.57;1.20;;;5.40;68.50;;;;;;5077877;28;20286;-66
2022/02/22 02:04:39;;;;;;;1.30;1.20;;;5.30;68.10;;;;;;5089324;28;20247;-67
2022/02/22 02:07:15;;;;;;;1.40;1.10;;;5.30;68.70;;;;;;5077232;28;20282;-67
2022/02/22 02:09:42;;;;;;;1.47;1.03;;;5.30;68.70;;;;;;5086498;28;20234;-67
2022/02/22 02:12:10;;;;;;;2.40;1.23;;;5.20;68.90;;;;;;5086768;28;20556;-68
2022/02/22 02:14:37;;;;;;;4.17;1.10;;;5.20;69.50;;;;;;5091112;28;20196;-67
2022/02/22 02:17:05;;;;;;;2.10;1.57;;;5.20;70.00;;;;;;5080490;28;20281;-66
2022/02/22 02:19:32;;;;;;;2.00;1.10;;;5.30;70.30;;;;;;5081676;28;20630;-66
2022/02/22 02:21:59;;;;;;;3.37;1.20;;;5.30;70.30;;;;;;5085647;28;20644;-66
2022/02/22 02:24:28;;;;;;;2.20;1.37;;;5.30;70.00;;;;;;5072300;28;20226;-66
2022/02/22 02:26:56;;;;;;;2.43;1.30;;;5.30;69.70;;;;;;5069099;28;20766;-66
2022/02/22 02:29:28;;;;;;;1.83;1.30;;;5.30;69.70;;;;;;5081449;28;20668;-65
2022/02/22 02:31:57;;;;;;;1.87;1.17;;;5.40;69.70;;;;;;5087424;28;20203;-67
2022/02/22 02:34:26;;;;;;;1.17;1.03;;;5.40;69.80;;;;;;5088343;28;20210;-66
2022/02/22 02:36:54;;;;;;;4.30;1.20;;;5.30;69.90;;;;;;5074909;28;20199;-66
2022/02/22 02:39:22;;;;;;;1.90;1.13;;;5.40;69.00;;;;;;5094193;28;20204;-66
2022/02/22 02:41:49;;;;;;;1.40;1.17;;;5.40;69.10;;;;;;5092162;28;20203;-68
2022/02/22 02:44:19;;;;;;;1.03;0.87;;;5.40;69.30;;;;;;5070260;28;20510;-67
2022/02/22 02:46:47;;;;;;;1.37;1.00;;;5.40;69.60;;;;;;5080759;28;20644;-67
2022/02/22 02:49:15;;;;;;;1.50;1.30;;;5.40;69.70;;;;;;5077856;28;20232;-67
2022/02/22 02:51:42;;;;;;;1.87;1.07;;;5.40;69.60;;;;;;5097597;28;20199;-67
2022/02/22 02:54:10;;;;;;;1.83;1.20;;;5.40;69.60;;;;;;5102186;28;20218;-68
2022/02/22 02:56:38;;;;;;;3.60;1.50;;;5.40;70.40;;;;;;5070129;28;20215;-67
2022/02/22 02:59:08;;;;;;;2.57;1.20;;;5.40;70.10;;;;;;5095059;28;20207;-67
2022/02/22 03:01:36;;;;;;;2.17;1.50;;;5.40;70.40;;;;;;5094939;28;20669;-67
2022/02/22 03:04:04;;;;;;;1.20;1.10;;;5.30;70.60;;;;;;5088065;28;20577;-68
2022/02/22 03:06:32;;;;;;;1.80;1.30;;;5.30;71.00;;;;;;5089055;28;20204;-68
2022/02/22 03:08:59;;;;;;;1.83;1.10;;;5.30;71.10;;;;;;5090842;28;20222;-68
2022/02/22 03:11:26;;;;;;;1.13;1.00;;;5.20;71.20;;;;;;5078555;28;20200;-68
2022/02/22 03:13:54;;;;;;;2.73;1.30;;;5.20;71.60;;;;;;5081831;28;20651;-68
2022/02/22 03:16:21;;;;;;;1.17;1.00;;;5.20;71.60;;;;;;5088035;28;20251;-68
2022/02/22 03:18:49;;;;;;;2.93;1.00;;;5.20;71.20;;;;;;5084183;28;20203;-68
2022/02/22 03:21:16;;;;;;;1.30;1.20;;;5.20;71.60;;;;;;5077753;28;20204;-68
2022/02/22 03:23:43;;;;;;;1.30;0.93;;;5.10;71.90;;;;;;5079425;28;20299;-68
2022/02/22 03:26:11;;;;;;;1.53;1.00;;;5.10;72.20;;;;;;5083623;28;20266;-68
2022/02/22 03:28:38;;;;;;;3.47;1.23;;;5.10;72.40;;;;;;5088451;28;20570;-68
2022/02/22 03:31:05;;;;;;;2.63;1.40;;;5.10;72.60;;;;;;5092989;28;20202;-68
2022/02/22 03:33:35;;;;;;;1.30;1.20;;;5.10;72.80;;;;;;5078271;28;20238;-68
2022/02/22 03:36:03;;;;;;;1.50;1.13;;;5.20;73.00;;;;;;5091645;28;20211;-68
2022/02/22 03:38:31;;;;;;;2.10;1.63;;;5.20;73.10;;;;;;5087684;28;20626;-69
2022/02/22 03:40:58;;;;;;;2.03;1.67;;;5.20;73.10;;;;;;5083150;28;20632;-68
2022/02/22 03:43:25;;;;;;;2.20;1.13;;;5.20;73.10;;;;;;5078966;28;20231;-69
2022/02/22 03:45:52;;;;;;;1.77;1.30;;;5.30;73.20;;;;;;5081271;28;20204;-66
2022/02/22 03:48:20;;;;;;;3.73;1.30;;;5.30;73.50;;;;;;5075181;28;20209;-66
2022/02/22 03:50:48;;;;;;;4.70;1.33;;;5.30;73.60;;;;;;5085163;28;20646;-66
2022/02/22 03:53:16;;;;;;;2.50;1.50;;;5.30;73.70;;;;;;5068485;28;20202;-65
2022/02/22 03:55:45;;;;;;;2.00;1.10;;;5.30;74.00;;;;;;5069671;28;20208;-67
2022/02/22 03:58:13;;;;;;;3.07;1.47;;;5.30;74.20;;;;;;5095503;28;20240;-66
2022/02/22 04:00:43;;;;;;;1.57;1.07;;;5.30;74.20;;;;;;5099162;28;20549;-68
2022/02/22 04:03:11;;;;;;;1.90;1.20;;;5.30;74.20;;;;;;5080615;28;20661;-68
2022/02/22 04:05:39;;;;;;;0.93;0.80;;;5.30;74.40;;;;;;5076237;28;20296;-67
2022/02/22 04:08:06;;;;;;;1.70;0.63;;;5.30;74.30;;;;;;5078168;28;20195;-68
2022/02/22 04:10:33;;;;;;;0.93;0.70;;;5.30;74.40;;;;;;5097413;28;20632;-67
2022/02/22 04:13:01;;;;;;;1.40;0.73;;;5.40;74.60;;;;;;5100527;28;20211;-68
2022/02/22 04:15:28;;;;;;;1.23;0.80;;;5.40;74.60;;;;;;5082042;28;20600;-67
2022/02/22 04:17:55;;;;;;;0.73;0.70;;;5.50;74.60;;;;;;5093688;28;20203;-67
2022/02/22 04:20:22;;;;;;;1.00;0.70;;;5.50;74.50;;;;;;5089508;28;20208;-68
2022/02/22 04:22:50;;;;;;;1.77;1.03;;;5.50;74.50;;;;;;5084759;28;20689;-68
2022/02/22 04:25:17;;;;;;;2.17;1.00;;;5.60;74.40;;;;;;5080357;28;20204;-67
2022/02/22 04:27:44;;;;;;;1.87;0.83;;;5.60;74.30;;;;;;5075954;28;20219;-68
2022/02/22 04:30:12;;;;;;;0.73;0.73;;;5.60;74.10;;;;;;5077145;28;20262;-67
2022/02/22 04:32:39;;;;;;;1.23;1.07;;;5.70;74.00;;;;;;5083105;28;20206;-66
2022/02/22 04:35:07;;;;;;;2.63;1.20;;;5.70;73.90;;;;;;5102196;28;20258;-67
2022/02/22 04:37:35;;;;;;;0.77;0.77;;;5.70;73.90;;;;;;5090406;28;20199;-67
2022/02/22 04:40:03;;;;;;;1.03;0.80;;;5.70;73.90;;;;;;5076109;28;20284;-66
2022/02/22 04:42:30;;;;;;;1.60;0.80;;;5.70;73.90;;;;;;5061613;28;20223;-67
2022/02/22 04:44:58;;;;;;;3.70;0.90;;;5.70;73.90;;;;;;5098797;28;20202;-67
2022/02/22 04:47:25;;;;;;;1.90;0.80;;;5.80;73.90;;;;;;5073441;28;20497;-68
2022/02/22 04:49:52;;;;;;;1.33;1.00;;;5.70;73.70;;;;;;5075467;28;20231;-68
2022/02/22 04:52:19;;;;;;;0.97;0.77;;;5.70;73.80;;;;;;5076888;28;20203;-68
2022/02/22 04:54:46;;;;;;;2.67;1.00;;;5.70;73.80;;;;;;5081453;28;20195;-67
2022/02/22 04:57:13;;;;;;;1.10;0.90;;;5.70;73.80;;;;;;5068505;28;20209;-67
2022/02/22 04:59:40;;;;;;;1.30;0.83;;;5.70;73.80;;;;;;5090611;28;20195;-67
2022/02/22 05:02:07;;;;;;;1.50;0.80;;;5.60;73.80;;;;;;5092325;28;20204;-67
2022/02/22 05:04:34;;;;;;;1.27;0.90;;;5.60;73.90;;;;;;5088788;28;20241;-67
2022/02/22 05:07:01;;;;;;;2.73;1.17;;;5.60;73.90;;;;;;5083800;28;20196;-66
2022/02/22 05:09:28;;;;;;;1.33;1.07;;;5.60;74.00;;;;;;5079774;28;20557;-66
2022/02/22 05:11:55;;;;;;;1.20;0.97;;;5.60;74.10;;;;;;5074923;28;20637;-67
2022/02/22 05:14:22;;;;;;;1.97;1.10;;;5.50;74.20;;;;;;5081619;28;20208;-67
2022/02/22 05:16:49;;;;;;;1.23;0.73;;;5.50;74.30;;;;;;5081243;28;20204;-67
2022/02/22 05:19:17;;;;;;;0.70;0.70;;;5.40;74.30;;;;;;5073514;28;20211;-68
2022/02/22 05:21:44;;;;;;;1.53;0.70;;;5.40;74.60;;;;;;5077380;28;20287;-67
2022/02/22 05:24:12;;;;;;;0.83;0.70;;;5.40;74.80;;;;;;5075202;28;20220;-67
2022/02/22 05:26:39;;;;;;;0.90;0.90;;;5.40;75.10;;;;;;5086438;28;20220;-67
2022/02/22 05:29:09;;;;;;;1.70;0.80;;;5.40;75.10;;;;;;5083954;28;20227;-67
2022/02/22 05:31:36;;;;;;;2.70;0.70;;;5.40;75.20;;;;;;5103901;28;20196;-67
2022/02/22 05:34:03;;;;;;;1.13;0.80;;;5.40;75.30;;;;;;5092393;28;20232;-67
2022/02/22 05:36:30;;;;;;;0.87;0.80;;;5.40;75.30;;;;;;5072772;28;20214;-67
2022/02/22 05:38:57;;;;;;;1.90;0.90;;;5.40;75.30;;;;;;5068536;28;20200;-67
2022/02/22 05:41:24;;;;;;;1.47;0.80;;;5.40;75.30;;;;;;5081151;28;20241;-67
2022/02/22 05:43:51;;;;;;;1.10;0.83;;;5.40;75.20;;;;;;5084692;28;20208;-67
2022/02/22 05:46:19;;;;;;;0.87;0.60;;;5.30;75.20;;;;;;5084488;28;20219;-67
2022/02/22 05:48:46;;;;;;;0.83;0.70;;;5.30;75.30;;;;;;5098811;28;20220;-67
2022/02/22 05:51:15;;;;;;;1.37;0.70;;;5.30;75.50;;;;;;5068902;28;20642;-67
2022/02/22 05:53:42;;;;;;;0.77;0.77;;;5.30;75.60;;;;;;5069666;28;20535;-67
2022/02/22 05:56:09;;;;;;;1.53;0.90;;;5.30;75.80;;;;;;5082219;28;20204;-68
2022/02/22 05:58:36;;;;;;;1.47;0.90;;;5.20;75.90;;;;;;5080198;28;20207;-67
2022/02/22 06:01:03;;;;;;;2.30;0.70;;;5.30;76.10;;;;;;5086019;28;20211;-66
2022/02/22 06:03:31;;;;;;;0.97;0.67;;;5.20;76.00;;;;;;5089910;28;20212;-66
2022/02/22 06:05:58;;;;;;;2.27;1.00;;;5.20;76.20;;;;;;5078889;28;20252;-66
2022/02/22 06:08:27;;;;;;;1.00;0.33;;;5.20;76.20;;;;;;5096097;28;20277;-66
2022/02/22 06:10:54;;;;;;;0.90;0.70;;;5.20;76.30;;;;;;5091641;28;20227;-66
2022/02/22 06:13:21;;;;;;;0.53;0.43;;;5.20;76.30;;;;;;5087986;28;20208;-66
2022/02/22 06:15:49;;;;;;;0.97;0.87;;;5.20;76.40;;;;;;5085690;28;20235;-66
2022/02/22 06:18:19;;;;;;;0.63;0.50;;;5.30;76.50;;;;;;5111601;28;20228;-66
2022/02/22 06:20:47;;;;;;;0.60;0.60;;;5.30;76.50;;;;;;5081798;28;20219;-66
2022/02/22 06:23:14;;;;;;;0.67;0.60;;;5.30;76.50;;;;;;5068041;28;20218;-66
2022/02/22 06:25:42;;;;;;;3.20;0.60;;;5.40;76.60;;;;;;5106833;28;20207;-67
2022/02/22 06:28:11;;;;;;;0.57;0.57;;;5.50;76.40;;;;;;5096431;28;20209;-66
2022/02/22 06:30:38;;;;;;;2.17;0.63;;;5.60;76.00;;;;;;5077799;28;20224;-66
2022/02/22 06:33:05;;;;;;;1.53;0.80;;;5.80;75.70;;;;;;5078106;28;20221;-66
2022/02/22 06:35:32;;;;;;;0.77;0.60;;;5.90;75.30;;;;;;5086970;28;20239;-67
2022/02/22 06:37:59;;;;;;;0.57;0.50;;;6.00;75.10;;;;;;5064152;28;20201;-66
2022/02/22 06:40:27;;;;;;;1.83;1.00;;;6.00;74.90;;;;;;5078294;28;20208;-66
2022/02/22 06:42:55;;;;;;;2.97;0.70;;;6.20;74.70;;;;;;5080557;28;20302;-65
2022/02/22 06:45:22;;;;;;;2.73;1.20;;;6.30;74.50;;;;;;5101068;28;20200;-65
2022/02/22 06:47:50;;;;;;;2.63;1.00;;;6.40;74.30;;;;;;5085182;28;20204;-67
2022/02/22 06:50:17;;;;;;;2.57;0.83;;;6.40;74.10;;;;;;5078991;28;20220;-66
2022/02/22 06:52:44;;;;;;;2.93;0.83;;;6.50;74.10;;;;;;5066981;28;20212;-67
2022/02/22 06:55:13;;;;;;;2.60;0.53;;;6.60;74.10;;;;;;5077732;28;20221;-67
2022/02/22 06:57:42;;;;;;;0.50;0.50;;;6.70;74.00;;;;;;5084964;28;20193;-66
2022/02/22 07:00:12;;;;;;;0.67;0.60;;;6.80;73.90;;;;;;5084819;28;20200;-67
2022/02/22 07:02:41;;;;;;;1.53;0.90;;;7.00;73.40;;;;;;5078560;28;20208;-67
2022/02/22 07:05:09;;;;;;;1.60;0.70;;;7.20;73.00;;;;;;5097237;28;20294;-66
2022/02/22 07:07:37;;;;;;;2.40;0.93;;;7.50;72.30;;;;;;5084669;28;20270;-66
2022/02/22 07:10:06;;;;;;;0.80;0.80;;;7.70;71.30;;;;;;5087953;28;20229;-67
2022/02/22 07:12:35;;;;;;;0.70;0.60;;;8.10;70.30;;;;;;5109160;28;20647;-66
2022/02/22 07:15:04;;;;;;;0.50;0.50;;;8.50;69.10;;;;;;5089345;28;20211;-66
2022/02/22 07:17:31;;;;;;;0.50;0.50;;;8.90;67.60;;;;;;5090333;28;20202;-66
2022/02/22 07:19:58;;;;;;;0.93;0.73;;;9.60;65.70;;;;;;5085769;28;20202;-67
2022/02/22 07:22:25;;;;;;;0.73;0.73;;;10.10;63.60;;;;;;5079864;28;20201;-67
2022/02/22 07:24:52;;;;;;;4.10;1.10;;;10.60;62.00;;;;;;5079547;28;20224;-67
2022/02/22 07:27:19;;;;;;;0.60;0.60;;;10.90;60.70;;;;;;5078487;28;20285;-66
2022/02/22 07:29:46;;;;;;;0.80;0.57;;;11.10;60.00;;;;;;5083914;28;20221;-66
2022/02/22 07:32:15;;;;;;;5.10;0.67;;;11.20;59.90;;;;;;5087392;28;20228;-66
2022/02/22 07:34:42;;;;;;;2.30;0.60;;;11.30;59.90;;;;;;5093104;28;20631;-66
2022/02/22 07:37:09;;;;;;;2.43;0.90;;;11.30;60.10;;;;;;5077226;28;20677;-66
2022/02/22 07:39:36;;;;;;;1.80;1.03;;;11.30;59.40;;;;;;5073937;28;20216;-66
2022/02/22 07:42:04;;;;;;;2.30;0.80;;;11.30;59.80;;;;;;5073681;28;20207;-67
2022/02/22 07:44:31;;;;;;;3.37;1.10;;;11.40;60.00;;;;;;5083883;28;20217;-67
2022/02/22 07:46:58;;;;;;;3.73;0.83;;;11.40;59.80;;;;;;5075558;28;20234;-66
2022/02/22 07:49:25;;;;;;;3.73;0.90;;;11.50;59.10;;;;;;5074001;28;20671;-66
2022/02/22 07:52:12;;;;;;;1.07;0.70;;;11.50;59.20;;;;;;5083779;28;20248;-66
2022/02/22 07:54:39;;;;;;;3.10;0.80;;;11.50;59.00;;;;;;5079410;28;20305;-66
2022/02/22 07:57:06;;;;;;;5.60;0.60;;;11.50;58.70;;;;;;5072145;28;20274;-66
2022/02/22 07:59:34;;;;;;;2.93;0.70;;;11.50;59.00;;;;;;5073795;28;20634;-66
2022/02/22 08:02:01;;;;;;;0.93;0.87;;;11.50;59.80;;;;;;5073018;28;20228;-66
2022/02/22 08:04:28;;;;;;;3.20;0.80;;;11.50;59.60;;;;;;5061339;28;20308;-66
2022/02/22 08:06:56;;;;;;;1.10;1.00;;;11.50;59.70;;;;;;5075865;28;20216;-67
2022/02/22 08:09:24;;;;;;;4.73;0.90;;;11.50;59.20;;;;;;5074762;28;20207;-67
2022/02/22 08:11:51;;;;;;;19.37;1.20;;;11.60;58.60;;;;;;5078481;28;20541;-67
2022/02/22 08:14:18;;;;;;;1.57;0.90;;;11.70;56.70;;;;;;5083370;28;20579;-67
2022/02/22 08:16:46;;;;;;;1.43;0.90;;;11.80;57.10;;;;;;5084944;28;20205;-67
2022/02/22 08:19:13;;;;;;;1.20;0.70;;;11.80;57.10;;;;;;5092193;28;20697;-67
2022/02/22 08:21:40;;;;;;;1.43;0.87;;;11.90;57.00;;;;;;5089655;28;20202;-67
2022/02/22 08:24:07;;;;;;;4.37;1.00;;;12.00;56.30;;;;;;5086095;28;20210;-67
2022/02/22 08:26:37;;;;;;;1.63;1.10;;;12.20;55.80;;;;;;5072701;28;20203;-66
2022/02/22 08:29:04;;;;;;;1.23;0.83;;;12.30;54.90;;;;;;5073024;28;20214;-66
2022/02/22 08:31:32;;;;;;;1.20;0.53;;;12.40;54.80;;;;;;5078912;28;20239;-66
2022/02/22 08:33:59;;;;;;;1.63;0.77;;;12.50;55.60;;;;;;5067416;28;20213;-66
2022/02/22 08:36:27;;;;;;;1.83;1.20;;;12.60;54.70;;;;;;5082779;28;20593;-66
2022/02/22 08:38:58;;;;;;;3.90;1.13;;;12.70;53.60;;;;;;5087550;28;20216;-66
2022/02/22 08:41:26;;;;;;;1.17;0.80;;;12.80;50.90;;;;;;5074243;28;20273;-66
2022/02/22 08:43:54;;;;;;;2.97;1.10;;;12.80;52.10;;;;;;5076642;28;20223;-67
2022/02/22 08:46:21;;;;;;;1.37;1.20;;;12.80;52.30;;;;;;5099000;28;20206;-67
2022/02/22 08:48:48;;;;;;;4.50;0.93;;;12.80;49.80;;;;;;5080271;28;20651;-67
2022/02/22 08:51:16;;;;;;;1.23;0.67;;;12.80;51.00;;;;;;5092737;28;20323;-67
2022/02/22 08:53:43;;;;;;;8.70;1.13;;;12.70;50.10;;;;;;5076290;28;20204;-67
2022/02/22 08:56:11;;;;;;;1.10;0.70;;;12.80;50.20;;;;;;5078048;28;20669;-67
2022/02/22 08:58:39;;;;;;;0.83;0.70;;;12.70;47.80;;;;;;5082713;28;20199;-67
2022/02/22 09:01:07;;;;;;;1.60;1.13;;;12.70;47.00;;;;;;5076436;28;20204;-67
2022/02/22 09:03:34;;;;;;;2.60;1.00;;;12.60;48.40;;;;;;5077034;28;20216;-67
2022/02/22 09:06:03;;;;;;;1.50;1.20;;;12.70;47.80;;;;;;5075696;28;20270;-67
2022/02/22 09:08:31;;;;;;;5.13;1.37;;;12.70;48.40;;;;;;5079808;28;20323;-67
2022/02/22 09:10:58;;;;;;;3.17;1.43;;;12.80;47.40;;;;;;5099832;28;20252;-67
2022/02/22 09:13:30;;;;;;;1.63;1.40;;;12.90;46.80;;;;;;5088043;28;20194;-67
2022/02/22 09:15:58;;;;;;;4.33;1.00;;;13.00;46.40;;;;;;5088483;28;20202;-67
2022/02/22 09:18:25;;;;;;;1.63;0.60;;;13.00;45.50;;;;;;5078051;28;20300;-67
2022/02/22 09:20:52;;;;;;;3.97;1.00;;;13.10;45.90;;;;;;5071755;28;20207;-65
2022/02/22 09:23:19;;;;;;;4.87;0.90;;;13.20;47.70;;;;;;5072144;28;20569;-66
2022/02/22 09:25:46;;;;;;;1.53;0.70;;;13.40;46.80;;;;;;5077709;28;20209;-66
2022/02/22 09:28:14;;;;;;;0.63;0.50;;;13.60;45.80;;;;;;5077876;28;20193;-67
2022/02/22 09:30:41;;;;;;;2.20;0.90;;;13.70;45.90;;;;;;5081549;28;20227;-67
2022/02/22 09:33:09;;;;;;;0.90;0.70;;;13.80;45.20;;;;;;5081073;28;20240;-65
2022/02/22 09:35:38;;;;;;;1.23;0.57;;;14.00;44.00;;;;;;5074079;28;20197;-66
2022/02/22 09:38:06;;;;;;;1.43;0.70;;;14.10;44.30;;;;;;5074057;28;20245;-65
2022/02/22 09:40:34;;;;;;;1.20;0.70;;;14.20;45.60;;;;;;5083949;28;20204;-66
2022/02/22 09:43:01;;;;;;;1.10;0.80;;;14.40;45.50;;;;;;5082195;28;20215;-66
2022/02/22 09:45:29;;;;;;;0.77;0.77;;;14.50;44.50;;;;;;5076761;28;20218;-66
2022/02/22 09:48:01;;;;;;;1.17;1.07;;;14.60;43.30;;;;;;5074353;28;20512;-65
2022/02/22 09:50:29;;;;;;;0.93;0.70;;;14.80;45.00;;;;;;5076261;28;20722;-65
2022/02/22 09:52:56;;;;;;;0.70;0.70;;;14.90;44.80;;;;;;5081253;28;20208;-65
2022/02/22 09:55:24;;;;;;;1.10;1.00;;;15.10;42.70;;;;;;5083116;28;20210;-66
2022/02/22 09:57:53;;;;;;;1.50;0.77;;;15.20;41.60;;;;;;5093724;28;20212;-66
2022/02/22 10:00:28;;;;;;;0.80;0.80;;;15.30;41.30;;;;;;5082710;28;20211;-66
2022/02/22 10:03:01;;;;;;;1.90;0.70;;;15.30;39.60;;;;;;5082679;28;20218;-66
2022/02/22 10:05:29;;;;;;;1.43;1.00;;;15.40;39.80;;;;;;5077607;28;20276;-66
2022/02/22 10:07:57;;;;;;;1.23;0.80;;;15.40;41.30;;;;;;5073421;28;20220;-66
2022/02/22 10:10:41;;;;;;;1.10;0.83;;;15.50;40.90;;;;;;5078261;28;20223;-66
2022/02/22 10:13:16;;;;;;;1.30;0.73;;;15.60;39.00;;;;;;5076590;28;20227;-66
2022/02/22 10:15:44;;;;;;;3.87;0.83;;;15.60;39.50;;;;;;5082181;28;20253;-66
2022/02/22 10:18:12;;;;;;;2.37;0.70;;;15.70;39.90;;;;;;5054429;28;20215;-66
2022/02/22 10:20:40;;;;;;;0.60;0.57;;;15.80;39.00;;;;;;5075473;28;20615;-66
2022/02/22 10:23:08;;;;;;;1.57;0.70;;;15.90;36.80;;;;;;5078683;28;20660;-66
2022/02/22 10:25:36;;;;;;;2.50;0.90;;;16.00;37.30;;;;;;5079328;28;20537;-66
2022/02/22 10:28:05;;;;;;;1.87;0.70;;;16.10;36.30;;;;;;5084501;28;20206;-66
2022/02/22 10:30:39;;;;;;;2.60;0.57;;;16.20;37.20;;;;;;5081550;28;20249;-66
2022/02/22 10:33:13;;;;;;;0.57;0.57;;;16.30;35.20;;;;;;5081242;28;20218;-67
2022/02/22 10:35:42;;;;;;;0.70;0.70;;;16.40;36.50;;;;;;5081370;28;20719;-66
2022/02/22 10:38:21;;;;;;;1.57;0.90;;;16.50;34.70;;;;;;5085681;28;20243;-66
2022/02/22 10:40:55;;;;;;;4.07;0.97;;;16.60;35.40;;;;;;5083259;28;20200;-66
2022/02/22 10:43:30;;;;;;;1.03;0.50;;;16.60;35.80;;;;;;5074830;28;20212;-66
2022/02/22 10:46:09;;;;;;;2.30;0.90;;;16.60;35.00;;;;;;5081351;28;20796;-66
2022/02/22 10:48:39;;;;;;;2.23;0.73;;;16.60;35.60;;;;;;5086541;28;20204;-66
2022/02/22 10:51:16;;;;;;;0.80;0.60;;;16.60;36.00;;;;;;5078518;28;20311;-66
2022/02/22 10:53:49;;;;;;;1.17;0.87;;;16.60;36.70;;;;;;5078946;28;20196;-66
2022/02/22 10:56:18;;;;;;;1.20;0.60;;;16.70;36.40;;;;;;5084256;28;20204;-66
2022/02/22 10:58:45;;;;;;;1.03;0.70;;;16.80;35.50;;;;;;5084392;28;20278;-66
2022/02/22 11:01:16;;;;;;;3.10;1.00;;;16.80;35.60;;;;;;5087309;28;20197;-67
2022/02/22 11:03:44;;;;;;;1.23;0.70;;;16.90;36.00;;;;;;5064338;28;20286;-67
2022/02/22 11:06:13;;;;;;;0.50;0.50;;;17.00;36.80;;;;;;5078272;28;20185;-67
2022/02/22 11:08:46;;;;;;;2.03;0.80;;;17.10;34.90;;;;;;5081804;28;20208;-67
2022/02/22 11:11:35;;;;;;;1.87;1.00;;;17.10;35.30;;;;;;5083585;28;20248;-67
2022/02/22 11:14:13;;;;;;;0.60;0.60;;;17.20;34.50;;;;;;5064132;28;20553;-67
2022/02/22 11:16:45;;;;;;;1.10;0.70;;;17.30;34.10;;;;;;5075821;28;20232;-67
2022/02/22 11:19:19;;;;;;;0.93;0.73;;;17.30;34.20;;;;;;5103193;28;20647;-67
2022/02/22 11:21:50;;;;;;;0.97;0.70;;;17.40;35.20;;;;;;5083697;28;20231;-67
2022/02/22 11:24:24;;;;;;;0.50;0.50;;;17.40;35.10;;;;;;5087202;28;20215;-67
2022/02/22 11:26:57;;;;;;;2.13;1.10;;;17.60;35.00;;;;;;5078513;28;20601;-67
2022/02/22 11:29:29;;;;;;;1.30;0.93;;;17.70;34.70;;;;;;5081282;28;20212;-67
2022/02/22 11:32:15;;;;;;;1.27;0.70;;;17.80;34.70;;;;;;5082283;28;20263;-67
2022/02/22 11:34:44;;;;;;;0.93;0.63;;;17.90;33.80;;;;;;5081071;28;20293;-67
2022/02/22 11:37:14;;;;;;;2.33;1.00;;;17.90;33.20;;;;;;5075235;28;20642;-67
2022/02/22 11:39:46;;;;;;;1.37;1.00;;;17.90;34.30;;;;;;5077964;28;20297;-68
2022/02/22 11:42:28;;;;;;;0.60;0.60;;;18.00;35.40;;;;;;5082783;28;20230;-67
2022/02/22 11:45:10;;;;;;;0.70;0.63;;;18.10;35.20;;;;;;5081234;28;20211;-67
2022/02/22 11:47:40;;;;;;;1.57;1.00;;;18.30;34.40;;;;;;5076310;28;20232;-67
2022/02/22 11:50:16;;;;;;;0.80;0.50;;;18.40;33.80;;;;;;5083618;28;20221;-67
2022/02/22 11:52:51;;;;;;;4.50;0.70;;;18.50;34.10;;;;;;5084782;28;20205;-67
2022/02/22 11:55:19;;;;;;;2.03;1.10;;;18.60;35.00;;;;;;5084374;28;20212;-67
2022/02/22 11:57:48;;;;;;;1.07;0.80;;;18.70;35.60;;;;;;5072948;28;20208;-67
2022/02/22 12:00:31;;;;;;;0.83;0.77;;;18.80;35.60;;;;;;5076147;28;20205;-67
2022/02/22 12:03:09;;;;;;;1.10;0.87;;;18.90;32.70;;;;;;5077435;28;20206;-67
2022/02/22 12:05:39;;;;;;;3.10;0.70;;;18.90;32.40;;;;;;5083415;28;20679;-67
2022/02/22 12:08:28;;;;;;;2.13;0.73;;;18.90;33.80;;;;;;5078729;28;20202;-67
2022/02/22 12:11:00;;;;;;;4.53;1.07;;;18.90;34.10;;;;;;5071903;28;20252;-67
2022/02/22 12:13:39;;;;;;;1.47;1.10;;;18.90;33.50;;;;;;5082072;28;20571;-67
2022/02/22 12:16:18;;;;;;;1.03;0.70;;;18.90;33.90;;;;;;5098802;28;20604;-67
2022/02/22 12:18:48;;;;;;;2.30;0.70;;;19.00;30.90;;;;;;5073540;28;20206;-67
2022/02/22 12:21:18;;;;;;;0.77;0.67;;;19.00;32.70;;;;;;5070535;28;20551;-66
2022/02/22 12:23:46;;;;;;;1.37;0.70;;;18.90;30.90;;;;;;5079292;28;20209;-67
2022/02/22 12:26:18;;;;;;;0.70;0.60;;;18.90;31.20;;;;;;5064196;28;20213;-67
2022/02/22 12:28:57;;;;;;;0.80;0.80;;;18.90;31.50;;;;;;5083098;28;20217;-67
2022/02/22 12:31:24;;;;;;;1.47;0.97;;;18.80;31.60;;;;;;5077106;28;20225;-67
2022/02/22 12:33:52;;;;;;;1.70;1.20;;;18.90;31.20;;;;;;5081138;28;20204;-67
2022/02/22 12:36:19;;;;;;;1.13;0.80;;;18.80;31.20;;;;;;5077631;28;20190;-67
2022/02/22 12:38:50;;;;;;;3.23;0.90;;;18.80;30.90;;;;;;5096889;28;20209;-67
2022/02/22 12:41:18;;;;;;;1.67;0.83;;;18.70;32.10;;;;;;5077708;28;20661;-67
2022/02/22 12:43:52;;;;;;;1.03;0.90;;;18.70;31.10;;;;;;5074442;28;20243;-67
2022/02/22 12:46:21;;;;;;;1.40;0.80;;;18.70;30.10;;;;;;5085419;28;20605;-67
2022/02/22 12:48:51;;;;;;;1.43;1.00;;;18.70;29.90;;;;;;5084970;28;20631;-67
2022/02/22 12:51:24;;;;;;;1.53;0.93;;;18.70;30.30;;;;;;5084582;28;20283;-67
2022/02/22 12:53:59;;;;;;;0.80;0.80;;;18.70;31.50;;;;;;5080550;28;20249;-67
2022/02/22 12:56:32;;;;;;;1.50;0.77;;;18.80;32.00;;;;;;5073961;28;20201;-67
2022/02/22 12:58:59;;;;;;;0.73;0.60;;;18.90;31.90;;;;;;5081083;28;20717;-67
2022/02/22 13:01:34;;;;;;;0.60;0.50;;;19.00;32.30;;;;;;5079703;28;20578;-67